X  CloseMetar Aviation Weather Data     YMAV Avalon

Temperature

16°C Temperature

12°C Dewpoint

77% Humidity



Wind

16 KM/H

10 MPH

 4 M/S

 9 KTS



360°
Due North
Current Conditions

Mostly Cloudy Mostly Cloudy
Pressure 1006.92 (hPa) - 29.73 (in)
Visibility 6.2 (mi) - 10 (km)
Airport
Airport-code YMAV

Location Avalon 14 (km)

Metar:
YMAV 101100Z AUTO 36009KT 9999 // BKN125 16/12 Q1007 RF00.0/000.0

Time: 10-04-2020 21:00